Time,TemperatureF,DewpointF,PressureIn,WindDirection,WindDirectionDegrees,WindSpeedMPH,WindSpeedGustMPH,Humidity,HourlyPrecipIn,Conditions,Clouds,dailyrainin,SolarRadiationWatts/m^2,SoftwareType,DateUTC
2013-07-29 00:22:00,56.0,52.0,-100.00,North,356,3.0,6.0,88,0.00,,,0.35,0.000000,,2013-07-29 06:22:00,
2013-07-29 00:32:00,56.0,52.0,-100.00,North,356,3.0,6.0,88,0.00,,,0.35,0.000000,,2013-07-29 06:32:00,
2013-07-29 00:43:00,56.0,52.0,-100.00,North,356,3.0,6.0,88,0.00,,,0.35,0.000000,,2013-07-29 06:43:00,
2013-07-29 00:52:00,56.0,52.0,-100.00,North,356,3.0,6.0,88,0.00,,,0.35,0.000000,,2013-07-29 06:52:00,
2013-07-29 01:22:00,56.0,53.0,-100.00,NNE,33,3.0,7.0,89,0.00,,,0.34,0.000000,,2013-07-29 07:22:00,
2013-07-29 01:33:00,56.0,53.0,-100.00,NNE,33,3.0,7.0,89,0.00,,,0.34,0.000000,,2013-07-29 07:33:00,
2013-07-29 01:43:00,56.0,53.0,-100.00,NNE,33,3.0,7.0,89,0.00,,,0.34,0.000000,,2013-07-29 07:43:00,
2013-07-29 01:53:00,56.0,53.0,-100.00,NNE,33,3.0,7.0,89,0.00,,,0.34,0.000000,,2013-07-29 07:53:00,
2013-07-29 02:22:00,55.0,52.0,-100.00,North,359,2.0,9.0,90,0.00,,,0.32,0.000000,,2013-07-29 08:22:00,
2013-07-29 02:33:00,55.0,52.0,-100.00,North,359,2.0,9.0,90,0.00,,,0.32,0.000000,,2013-07-29 08:33:00,
2013-07-29 02:42:00,55.0,52.0,-100.00,North,359,2.0,9.0,90,0.00,,,0.32,0.000000,,2013-07-29 08:42:00,
2013-07-29 02:52:00,55.0,52.0,-100.00,North,359,2.0,9.0,90,0.00,,,0.32,0.000000,,2013-07-29 08:52:00,
2013-07-29 03:22:00,55.0,52.0,-100.00,North,0,4.0,5.0,91,0.00,,,0.32,0.000000,,2013-07-29 09:22:00,
2013-07-29 03:33:00,55.0,52.0,-100.00,North,0,4.0,5.0,91,0.00,,,0.32,0.000000,,2013-07-29 09:33:00,
2013-07-29 03:43:00,55.0,52.0,-100.00,North,0,4.0,5.0,91,0.00,,,0.32,0.000000,,2013-07-29 09:43:00,
2013-07-29 03:53:00,55.0,52.0,-100.00,North,0,4.0,5.0,91,0.00,,,0.32,0.000000,,2013-07-29 09:53:00,
2013-07-29 04:24:00,54.0,51.0,-100.00,NNW,347,2.0,6.0,90,0.00,,,0.31,0.000000,,2013-07-29 10:24:00,
2013-07-29 04:37:00,54.0,51.0,-100.00,NNW,347,2.0,6.0,90,0.00,,,0.31,0.000000,,2013-07-29 10:37:00,
2013-07-29 04:47:00,54.0,51.0,-100.00,NNW,347,2.0,6.0,90,0.00,,,0.31,0.000000,,2013-07-29 10:47:00,
2013-07-29 04:53:00,54.0,51.0,-100.00,NNW,347,2.0,6.0,90,0.00,,,0.31,0.000000,,2013-07-29 10:53:00,
2013-07-29 05:24:00,52.0,50.0,-100.00,North,9,5.0,7.0,92,0.00,,,0.31,0.000000,,2013-07-29 11:24:00,
2013-07-29 05:35:00,52.0,50.0,-100.00,North,9,5.0,7.0,92,0.00,,,0.31,0.000000,,2013-07-29 11:35:00,
2013-07-29 05:44:00,52.0,50.0,-100.00,North,9,5.0,7.0,92,0.00,,,0.31,0.000000,,2013-07-29 11:44:00,
2013-07-29 05:55:00,52.0,50.0,-100.00,North,9,5.0,7.0,92,0.00,,,0.31,0.000000,,2013-07-29 11:55:00,
2013-07-29 06:25:00,54.0,51.0,-100.00,NE,40,3.0,8.0,88,0.00,,,0.31,0.000000,,2013-07-29 12:25:00,
2013-07-29 06:35:00,54.0,51.0,-100.00,NE,40,3.0,8.0,88,0.00,,,0.31,0.000000,,2013-07-29 12:35:00,
2013-07-29 06:44:00,54.0,51.0,-100.00,NE,40,3.0,8.0,88,0.00,,,0.31,0.000000,,2013-07-29 12:44:00,
2013-07-29 06:55:00,54.0,51.0,-100.00,NE,40,3.0,8.0,88,0.00,,,0.31,0.000000,,2013-07-29 12:55:00,
2013-07-29 07:27:00,53.0,49.0,-100.00,North,0,3.0,6.0,87,0.00,,,0.31,9.000000,,2013-07-29 13:27:00,
2013-07-29 07:36:00,53.0,49.0,-100.00,North,0,3.0,6.0,87,0.00,,,0.31,9.000000,,2013-07-29 13:36:00,
2013-07-29 07:44:00,53.0,49.0,-100.00,North,0,3.0,6.0,87,0.00,,,0.31,9.000000,,2013-07-29 13:44:00,
2013-07-29 07:54:00,53.0,49.0,-100.00,North,0,3.0,6.0,87,0.00,,,0.31,9.000000,,2013-07-29 13:54:00,
2013-07-29 08:27:00,58.0,52.0,-100.00,SSE,154,1.0,5.0,81,0.00,,,0.31,86.000000,,2013-07-29 14:27:00,
2013-07-29 08:35:00,58.0,52.0,-100.00,SSE,154,1.0,5.0,81,0.00,,,0.31,86.000000,,2013-07-29 14:35:00,
2013-07-29 08:44:00,58.0,52.0,-100.00,SSE,154,1.0,5.0,81,0.00,,,0.31,86.000000,,2013-07-29 14:44:00,
2013-07-29 08:55:00,58.0,52.0,-100.00,SSE,154,1.0,5.0,81,0.00,,,0.31,86.000000,,2013-07-29 14:55:00,
2013-07-29 09:24:00,63.0,55.0,-100.00,SSW,207,3.0,6.0,75,0.00,,,0.31,371.000000,,2013-07-29 15:24:00,
2013-07-29 10:23:00,67.0,52.0,-100.00,SW,215,4.0,8.0,59,0.00,,,0.31,572.000000,,2013-07-29 16:23:00,
2013-07-29 10:37:00,67.0,52.0,-100.00,SW,215,4.0,8.0,59,0.00,,,0.31,572.000000,,2013-07-29 16:37:00,
2013-07-29 10:45:00,67.0,52.0,-100.00,SW,215,4.0,8.0,59,0.00,,,0.31,572.000000,,2013-07-29 16:45:00,
2013-07-29 10:55:00,67.0,52.0,-100.00,SW,215,4.0,8.0,59,0.00,,,0.31,572.000000,,2013-07-29 16:55:00,
2013-07-29 11:24:00,69.0,53.0,-100.00,SSW,200,5.0,11.0,57,0.00,,,0.31,649.000000,,2013-07-29 17:24:00,
2013-07-29 11:40:00,69.0,53.0,-100.00,SSW,200,5.0,11.0,57,0.00,,,0.31,649.000000,,2013-07-29 17:40:00,
2013-07-29 11:56:00,69.0,53.0,-100.00,SSW,200,5.0,11.0,57,0.00,,,0.31,649.000000,,2013-07-29 17:56:00,
2013-07-29 12:35:00,74.0,54.0,-100.00,SSW,192,6.0,17.0,49,0.00,,,0.30,862.000000,,2013-07-29 18:35:00,
2013-07-29 12:45:00,74.0,54.0,-100.00,SSW,192,6.0,17.0,49,0.00,,,0.30,862.000000,,2013-07-29 18:45:00,
2013-07-29 13:25:00,70.0,50.0,-100.00,NW,307,8.0,17.0,49,0.00,,,0.29,515.000000,,2013-07-29 19:25:00,
2013-07-29 13:36:00,70.0,50.0,-100.00,NW,307,8.0,17.0,49,0.00,,,0.29,515.000000,,2013-07-29 19:36:00,
2013-07-29 13:45:00,70.0,50.0,-100.00,NW,307,8.0,17.0,49,0.00,,,0.29,515.000000,,2013-07-29 19:45:00,
2013-07-29 13:53:00,70.0,50.0,-100.00,NW,307,8.0,17.0,49,0.00,,,0.29,515.000000,,2013-07-29 19:53:00,
2013-07-29 14:24:00,67.0,53.0,-100.00,NNW,339,7.0,16.0,60,0.01,,,0.30,315.000000,,2013-07-29 20:24:00,
2013-07-29 15:24:00,76.0,46.0,-100.00,West,278,8.0,15.0,35,-99.99,,,0.30,663.000000,,2013-07-29 21:24:00,
2013-07-29 15:34:00,76.0,46.0,-100.00,West,278,8.0,15.0,35,-99.99,,,0.30,663.000000,,2013-07-29 21:34:00,
2013-07-29 15:47:00,76.0,46.0,-100.00,West,278,8.0,15.0,35,-99.99,,,0.30,663.000000,,2013-07-29 21:47:00,
2013-07-29 16:25:00,80.0,41.0,-100.00,WSW,240,8.0,22.0,25,0.00,,,0.30,732.000000,,2013-07-29 22:25:00,
2013-07-29 16:37:00,80.0,41.0,-100.00,WSW,240,8.0,22.0,25,0.00,,,0.30,732.000000,,2013-07-29 22:37:00,
2013-07-29 16:43:00,80.0,41.0,-100.00,WSW,240,8.0,22.0,25,0.00,,,0.30,732.000000,,2013-07-29 22:43:00,
2013-07-29 16:55:00,80.0,41.0,-100.00,WSW,240,8.0,22.0,25,0.00,,,0.30,732.000000,,2013-07-29 22:55:00,
2013-07-29 17:26:00,79.0,34.0,-100.00,WNW,282,11.0,21.0,20,0.00,,,0.30,701.000000,,2013-07-29 23:26:00,
2013-07-29 17:34:00,79.0,34.0,-100.00,WNW,282,11.0,21.0,20,0.00,,,0.30,701.000000,,2013-07-29 23:34:00,
2013-07-29 17:44:00,79.0,34.0,-100.00,WNW,282,11.0,21.0,20,0.00,,,0.30,701.000000,,2013-07-29 23:44:00,
2013-07-29 17:53:00,79.0,34.0,-100.00,WNW,282,11.0,21.0,20,0.00,,,0.30,701.000000,,2013-07-29 23:53:00,
2013-07-29 18:24:00,78.0,40.0,-100.00,West,273,10.0,21.0,26,0.00,,,-99.99,496.000000,,2013-07-30 00:24:00,
2013-07-29 18:34:00,78.0,40.0,-100.00,West,273,10.0,21.0,26,0.00,,,-99.99,496.000000,,2013-07-30 00:34:00,
2013-07-29 18:47:00,78.0,40.0,-100.00,West,273,10.0,21.0,26,0.00,,,-99.99,496.000000,,2013-07-30 00:47:00,
2013-07-29 18:54:00,78.0,40.0,-100.00,West,273,10.0,21.0,26,0.00,,,-99.99,496.000000,,2013-07-30 00:54:00,
2013-07-29 19:23:00,76.0,39.0,-100.00,West,271,8.0,18.0,26,0.00,,,0.01,322.000000,,2013-07-30 01:23:00,
2013-07-29 19:44:00,76.0,39.0,-100.00,West,271,8.0,18.0,26,0.00,,,0.01,322.000000,,2013-07-30 01:44:00,
2013-07-29 19:55:00,76.0,39.0,-100.00,West,271,8.0,18.0,26,0.00,,,0.01,322.000000,,2013-07-30 01:55:00,
2013-07-29 20:23:00,72.0,38.0,-100.00,WNW,300,7.0,15.0,29,0.00,,,0.01,123.000000,,2013-07-30 02:23:00,
2013-07-29 20:36:00,72.0,38.0,-100.00,WNW,300,7.0,15.0,29,0.00,,,0.01,123.000000,,2013-07-30 02:36:00,
2013-07-29 20:45:00,72.0,38.0,-100.00,WNW,300,7.0,15.0,29,0.00,,,0.01,123.000000,,2013-07-30 02:45:00,
2013-07-29 20:54:00,72.0,38.0,-100.00,WNW,300,7.0,15.0,29,0.00,,,0.01,123.000000,,2013-07-30 02:54:00,
2013-07-29 21:25:00,67.0,41.0,-100.00,North,351,7.0,13.0,39,0.00,,,-99.99,4.000000,,2013-07-30 03:25:00,
2013-07-29 21:34:00,67.0,41.0,-100.00,North,351,7.0,13.0,39,0.00,,,-99.99,4.000000,,2013-07-30 03:34:00,
2013-07-29 21:44:00,67.0,41.0,-100.00,North,351,7.0,13.0,39,0.00,,,-99.99,4.000000,,2013-07-30 03:44:00,
2013-07-29 21:53:00,67.0,41.0,-100.00,North,351,7.0,13.0,39,0.00,,,-99.99,4.000000,,2013-07-30 03:53:00,
2013-07-29 22:23:00,68.0,42.0,-100.00,NW,326,7.0,12.0,39,0.00,,,0.01,0.000000,,2013-07-30 04:23:00,
2013-07-29 22:33:00,68.0,42.0,-100.00,NW,326,7.0,12.0,39,0.00,,,0.01,0.000000,,2013-07-30 04:33:00,
2013-07-29 22:43:00,68.0,42.0,-100.00,NW,326,7.0,12.0,39,0.00,,,0.01,0.000000,,2013-07-30 04:43:00,
2013-07-29 22:53:00,68.0,42.0,-100.00,NW,326,7.0,12.0,39,0.00,,,0.01,0.000000,,2013-07-30 04:53:00,
2013-07-29 23:23:00,63.0,42.0,-100.00,NNE,33,4.0,10.0,47,-99.99,,,0.01,0.000000,,2013-07-30 05:23:00,
2013-07-29 23:33:00,63.0,42.0,-100.00,NNE,33,4.0,10.0,47,-99.99,,,0.01,0.000000,,2013-07-30 05:33:00,
2013-07-29 23:45:00,63.0,42.0,-100.00,NNE,33,4.0,10.0,47,-99.99,,,0.01,0.000000,,2013-07-30 05:45:00,
2013-07-29 23:52:00,63.0,42.0,-100.00,NNE,33,4.0,10.0,47,-99.99,,,0.01,0.000000,,2013-07-30 05:52:00,